OICK 
Khoram Abad Airport
Iran 
ICAOIATAStatus
OICKKHDOperational
LatitudeLongitude
33° 26' 7" N48° 16' 58" E
33.43539848.282902
Local Time (DST+5)UTC (GMT+4)
04-23-2014 09:26 pm04-23-2014 16:56
Sunrise-SunsetLocalUTC
Begin Civil Twilight06:09 am01:39
Sunrise06:35 am02:05
Sunset07:54 pm15:24
End Civil Twilight08:20 pm15:50

Current Weather

METARObservedFlight Conditions

OICK 231230Z 22010KT 9999 SCT040TCU 24/07 Q1016

Wed, Apr 23, 2014 @ 12:30 UTC(Z)

(4 Hours, 26 Minutes ago)

VFR

(Visual Flight Rules)

WindVisibilityCloudsConditions
220° at 10 knots (19 kph)
10 km or more
  • Scattered at 4,000' AGL
  • No significant weather
TemperaturesReadingsPrecipitation
Current Temp24°C (75°F)
Dewpoint7°C (45°F)
Humidity34%
Altimeter30"Hg
Sea Level Pressure1016mb
Field Elevation3789.37'
None Recorded

Additional weather within a 185.2km radius of OICK

Location METAR
OICC

144.8km N (315°)

56 minutes ago
OIHH

161.3km N (009°)

6 hours, 56 minutes ago
OICI

174.8km W (276°)

56 minutes ago
VFR VFR    MVFR MVFR    IFR IFR    LIFR LIFR    Unknown Unknown

Previous 24 hour Weather Graphs

  Loading...

CheckWX.com is intended as a tool to help pilots better visualize weather data.   It is not intended as a substitute for an official weather briefing obtained from a Flight Service Station.
CheckWX.com does not meet the FAA requirements for an official pre-flight weather briefing.   Therefore, it's important that pilots still call and obtain an official FSS pre-flight weather briefing.